createdAt,value
2019-02-07T00:01:03.634Z,72.00
2019-02-07T00:02:29.646Z,71.90
2019-02-07T00:03:55.200Z,71.80
2019-02-07T00:05:20.827Z,71.60
2019-02-07T00:06:46.439Z,71.60
2019-02-07T00:08:12.227Z,71.70
2019-02-07T00:09:38.004Z,72.00
2019-02-07T00:11:03.596Z,72.20
2019-02-07T00:12:29.108Z,72.60
2019-02-07T00:13:54.881Z,72.40
2019-02-07T00:15:20.667Z,72.40
2019-02-07T00:16:46.257Z,72.60
2019-02-07T00:18:11.974Z,72.60
2019-02-07T00:19:37.577Z,72.70
2019-02-07T00:21:03.348Z,72.90
2019-02-07T00:22:28.959Z,73.00
2019-02-07T00:23:54.616Z,73.00
2019-02-07T00:25:20.188Z,73.20
2019-02-07T00:26:45.683Z,73.40
2019-02-07T00:28:11.385Z,73.40
2019-02-07T00:29:37.087Z,73.40
2019-02-07T00:31:02.628Z,73.20
2019-02-07T00:32:28.217Z,73.00
2019-02-07T00:33:53.689Z,72.90
2019-02-07T00:35:19.248Z,72.60
2019-02-07T00:36:44.709Z,72.50
2019-02-07T00:38:10.316Z,72.40
2019-02-07T00:39:35.892Z,72.40
2019-02-07T00:41:01.364Z,72.30
2019-02-07T00:42:26.934Z,71.60
2019-02-07T00:43:52.551Z,71.90
2019-02-07T00:45:18.560Z,72.00
2019-02-07T00:46:44.107Z,71.90
2019-02-07T00:48:09.713Z,71.80
2019-02-07T00:49:35.152Z,71.80
2019-02-07T00:51:00.735Z,71.80
2019-02-07T00:52:26.300Z,71.80
2019-02-07T00:53:51.772Z,72.00
2019-02-07T00:55:17.479Z,72.10
2019-02-07T00:56:43.029Z,72.00
2019-02-07T00:58:08.628Z,72.10
2019-02-07T00:59:34.237Z,72.10
2019-02-07T01:00:59.945Z,72.20
2019-02-07T01:02:25.523Z,72.20
2019-02-07T01:03:51.111Z,72.30
2019-02-07T01:05:17.307Z,72.40
2019-02-07T01:06:42.855Z,72.40
2019-02-07T01:08:08.768Z,72.60
2019-02-07T01:09:34.693Z,72.60
2019-02-07T01:11:00.305Z,72.60
2019-02-07T01:12:26.012Z,72.60
2019-02-07T01:13:51.776Z,72.50
2019-02-07T01:15:17.660Z,72.50
2019-02-07T01:16:43.127Z,72.70
2019-02-07T01:18:09.115Z,72.70
2019-02-07T01:19:35.350Z,72.50
2019-02-07T01:21:00.894Z,72.50
2019-02-07T01:22:26.376Z,72.60
2019-02-07T01:23:51.945Z,72.60
2019-02-07T01:25:19.795Z,73.20
2019-02-07T01:26:45.256Z,72.50
2019-02-07T01:28:10.939Z,72.70
2019-02-07T01:29:36.430Z,72.70
2019-02-07T01:31:02.329Z,72.80
2019-02-07T01:32:27.824Z,72.80
2019-02-07T01:33:53.434Z,72.80
2019-02-07T01:35:18.958Z,72.70
2019-02-07T01:36:44.620Z,72.80
2019-02-07T01:38:10.123Z,72.70
2019-02-07T01:39:35.817Z,72.80
2019-02-07T01:41:01.407Z,72.80
2019-02-07T01:42:27.044Z,73.00
2019-02-07T01:43:52.519Z,73.00
2019-02-07T01:45:20.092Z,72.80
2019-02-07T01:46:45.559Z,72.80
2019-02-07T01:48:11.037Z,72.90
2019-02-07T01:49:36.605Z,72.80
2019-02-07T01:51:02.069Z,72.70
2019-02-07T01:52:27.660Z,72.80
2019-02-07T01:53:53.143Z,72.90
2019-02-07T01:55:18.626Z,73.00
2019-02-07T01:56:44.199Z,73.00
2019-02-07T01:58:09.785Z,72.90
2019-02-07T01:59:35.260Z,73.00
2019-02-07T02:01:01.272Z,73.00
2019-02-07T02:02:26.829Z,73.10
2019-02-07T02:03:52.294Z,73.00
2019-02-07T02:05:19.006Z,72.90
2019-02-07T02:06:44.865Z,72.80
2019-02-07T02:08:10.561Z,72.70
2019-02-07T02:09:36.249Z,72.40
2019-02-07T02:11:02.093Z,72.00
2019-02-07T02:12:27.964Z,71.90
2019-02-07T02:13:53.433Z,71.80
2019-02-07T02:15:24.429Z,71.80
2019-02-07T02:16:48.513Z,71.70
2019-02-07T02:18:14.373Z,71.80
2019-02-07T02:19:39.940Z,71.60
2019-02-07T02:21:05.641Z,71.50
2019-02-07T02:22:31.219Z,71.40
2019-02-07T02:23:57.080Z,71.30
2019-02-07T02:25:22.779Z,71.30
2019-02-07T02:26:48.248Z,71.40
2019-02-07T02:28:13.813Z,71.30
2019-02-07T02:29:39.607Z,71.30
2019-02-07T02:31:05.212Z,71.30
2019-02-07T02:32:30.764Z,71.30
2019-02-07T02:33:56.239Z,71.40
2019-02-07T02:35:21.692Z,71.40
2019-02-07T02:36:47.306Z,71.30
2019-02-07T02:38:12.875Z,71.20
2019-02-07T02:39:38.367Z,71.00
2019-02-07T02:41:04.000Z,71.10
2019-02-07T02:42:29.455Z,70.90
2019-02-07T02:43:55.042Z,70.80
2019-02-07T02:45:21.019Z,70.70
2019-02-07T02:46:46.636Z,70.70
2019-02-07T02:48:12.288Z,70.40
2019-02-07T02:49:37.848Z,70.60
2019-02-07T02:51:03.675Z,70.80
2019-02-07T02:52:29.117Z,70.80
2019-02-07T02:53:56.544Z,70.60
2019-02-07T02:55:36.320Z,70.40
2019-02-07T02:57:02.028Z,70.30
2019-02-07T02:58:28.012Z,70.50
2019-02-07T02:59:53.544Z,70.40
2019-02-07T03:01:40.184Z,70.30
2019-02-07T03:03:28.498Z,70.30
2019-02-07T03:05:08.148Z,70.00
2019-02-07T03:06:51.289Z,70.10
2019-02-07T03:08:32.466Z,70.00
2019-02-07T03:10:07.626Z,69.90
2019-02-07T03:11:40.761Z,69.90
2019-02-07T03:13:28.186Z,70.00
2019-02-07T03:15:14.186Z,69.70
2019-02-07T03:17:00.364Z,69.90
2019-02-07T03:18:50.652Z,69.50
2019-02-07T03:20:36.199Z,69.40
2019-02-07T03:22:25.052Z,69.40
2019-02-07T03:24:12.164Z,69.00
2019-02-07T03:25:51.948Z,68.60
2019-02-07T03:27:31.571Z,68.70
2019-02-07T03:29:30.779Z,68.80
2019-02-07T03:31:13.342Z,68.60
2019-02-07T03:32:57.645Z,68.60
2019-02-07T03:34:38.973Z,68.70
2019-02-07T03:36:23.453Z,68.30
2019-02-07T03:37:56.732Z,68.00
2019-02-07T03:39:41.388Z,67.70
2019-02-07T03:41:26.476Z,67.70
2019-02-07T03:43:11.346Z,67.40
2019-02-07T03:44:55.865Z,67.20
2019-02-07T03:46:43.300Z,67.10
2019-02-07T03:48:16.000Z,67.00
2019-02-07T03:50:06.529Z,66.90
2019-02-07T03:51:59.839Z,66.90
2019-02-07T03:53:44.296Z,67.00
2019-02-07T03:55:34.843Z,67.00
2019-02-07T03:57:12.398Z,67.00
2019-02-07T03:59:11.838Z,66.70
2019-02-07T04:01:05.576Z,66.50
2019-02-07T04:02:58.900Z,66.40
2019-02-07T04:04:40.526Z,66.00
2019-02-07T04:06:24.045Z,66.00
2019-02-07T04:08:20.237Z,65.80
2019-02-07T04:10:13.758Z,65.70
2019-02-07T04:11:56.689Z,65.80
2019-02-07T04:13:40.993Z,65.80
2019-02-07T04:15:28.504Z,65.60
2019-02-07T04:17:18.676Z,65.90
2019-02-07T04:19:03.241Z,65.60
2019-02-07T04:20:47.525Z,65.90
2019-02-07T04:22:23.777Z,65.60
2019-02-07T04:24:08.148Z,65.70
2019-02-07T04:26:01.700Z,65.60
2019-02-07T04:27:44.345Z,65.70
2019-02-07T04:29:34.416Z,65.80
2019-02-07T04:31:20.854Z,65.90
2019-02-07T04:33:08.149Z,66.00
2019-02-07T04:34:50.949Z,66.10
2019-02-07T04:36:29.952Z,66.40
2019-02-07T04:38:12.656Z,66.50
2019-02-07T04:39:55.523Z,66.60
2019-02-07T04:41:38.480Z,66.60
2019-02-07T04:43:21.334Z,66.70
2019-02-07T04:45:08.637Z,66.70
2019-02-07T04:46:53.054Z,67.30
2019-02-07T04:48:35.852Z,66.60
2019-02-07T04:50:25.973Z,66.50
2019-02-07T04:52:08.713Z,66.70
2019-02-07T04:53:49.294Z,66.80
2019-02-07T04:55:32.030Z,66.70
2019-02-07T04:57:28.075Z,66.70
2019-02-07T04:59:10.423Z,66.60
2019-02-07T05:00:54.826Z,66.70
2019-02-07T05:02:37.676Z,66.60
2019-02-07T05:04:29.665Z,66.90
2019-02-07T05:06:12.832Z,66.90
2019-02-07T05:07:49.724Z,66.90
2019-02-07T05:09:33.360Z,66.90
2019-02-07T05:11:18.797Z,66.90
2019-02-07T05:13:06.567Z,67.10
2019-02-07T05:14:55.341Z,67.00
2019-02-07T05:16:41.284Z,66.90
2019-02-07T05:18:29.780Z,66.90
2019-02-07T05:20:12.931Z,66.60
2019-02-07T05:21:55.594Z,66.50
2019-02-07T05:23:42.661Z,66.20
2019-02-07T05:25:42.881Z,66.00
2019-02-07T05:27:35.102Z,66.00
2019-02-07T05:29:17.893Z,66.10
2019-02-07T05:31:07.093Z,66.30
2019-02-07T05:32:52.134Z,66.30
2019-02-07T05:34:48.657Z,66.30
2019-02-07T05:36:35.793Z,66.20
2019-02-07T05:38:18.993Z,66.30
2019-02-07T05:39:53.826Z,66.30
2019-02-07T05:41:44.160Z,66.40
2019-02-07T05:43:37.255Z,66.50
2019-02-07T05:45:30.635Z,66.40
2019-02-07T05:47:13.561Z,66.50
2019-02-07T05:49:15.903Z,66.40
2019-02-07T05:50:58.797Z,66.70
2019-02-07T05:52:52.678Z,66.60
2019-02-07T05:54:49.061Z,66.60
2019-02-07T05:56:45.126Z,66.60
2019-02-07T05:58:44.109Z,66.50
2019-02-07T06:00:35.645Z,66.60
2019-02-07T06:02:18.256Z,66.80
2019-02-07T06:03:57.260Z,66.70
2019-02-07T06:05:40.328Z,66.70
2019-02-07T06:07:24.705Z,66.70
2019-02-07T06:09:26.901Z,66.70
2019-02-07T06:11:19.751Z,67.00
2019-02-07T06:13:02.776Z,66.90
2019-02-07T06:14:53.138Z,66.90
2019-02-07T06:16:35.878Z,66.90
2019-02-07T06:18:23.030Z,67.10
2019-02-07T06:20:07.296Z,66.70
2019-02-07T06:21:48.412Z,66.90
2019-02-07T06:23:32.833Z,66.90
2019-02-07T06:25:32.359Z,66.70
2019-02-07T06:27:15.632Z,66.50
2019-02-07T06:29:01.465Z,66.60
2019-02-07T06:30:45.867Z,66.80
2019-02-07T06:32:42.306Z,66.70
2019-02-07T06:34:29.164Z,66.70
2019-02-07T06:36:06.954Z,66.70
2019-02-07T06:38:06.209Z,66.60
2019-02-07T06:39:49.020Z,66.70
2019-02-07T06:41:28.019Z,66.80
2019-02-07T06:43:08.688Z,66.80
2019-02-07T06:44:56.035Z,66.90
2019-02-07T06:46:38.973Z,66.80
2019-02-07T06:48:12.467Z,66.80
2019-02-07T06:49:54.642Z,67.40
2019-02-07T06:51:41.951Z,66.60
2019-02-07T06:53:39.786Z,66.40
2019-02-07T06:55:30.727Z,66.50
2019-02-07T06:57:27.023Z,66.60
2019-02-07T06:59:14.100Z,66.60
2019-02-07T07:01:10.651Z,66.40
2019-02-07T07:02:53.393Z,66.00
2019-02-07T07:04:43.424Z,66.20
2019-02-07T07:06:39.967Z,66.20
2019-02-07T07:08:29.232Z,66.50
2019-02-07T07:10:19.372Z,66.50
2019-02-07T07:12:09.764Z,66.30
2019-02-07T07:13:47.869Z,66.00
2019-02-07T07:15:35.436Z,65.90
2019-02-07T07:17:25.475Z,66.00
2019-02-07T07:19:19.259Z,66.10
2019-02-07T07:21:12.420Z,66.20
2019-02-07T07:22:50.812Z,66.30
2019-02-07T07:24:32.497Z,66.30
2019-02-07T07:26:15.458Z,66.50
2019-02-07T07:28:08.565Z,66.80
2019-02-07T07:29:56.069Z,66.70
2019-02-07T07:31:43.809Z,66.90
2019-02-07T07:33:26.834Z,67.00
2019-02-07T07:35:14.012Z,67.10
2019-02-07T07:36:58.484Z,67.10
2019-02-07T07:38:41.369Z,67.30
2019-02-07T07:40:29.634Z,67.50
2019-02-07T07:42:12.488Z,67.90
2019-02-07T07:44:11.822Z,67.80
2019-02-07T07:45:54.744Z,67.80
2019-02-07T07:47:50.905Z,68.00
2019-02-07T07:49:35.304Z,68.30
2019-02-07T07:51:19.913Z,68.20
2019-02-07T07:53:07.094Z,68.40
2019-02-07T07:54:57.627Z,68.60
2019-02-07T07:56:44.804Z,68.70
2019-02-07T07:58:36.084Z,68.50
2019-02-07T08:00:22.141Z,68.50
2019-02-07T08:02:00.652Z,68.60
2019-02-07T08:03:34.059Z,69.00
2019-02-07T08:05:24.100Z,68.90
2019-02-07T08:07:06.555Z,68.80
2019-02-07T08:08:51.044Z,69.00
2019-02-07T08:10:41.604Z,69.50
2019-02-07T08:12:31.982Z,69.50
2019-02-07T08:14:19.396Z,69.70
2019-02-07T08:16:02.427Z,70.00
2019-02-07T08:17:47.496Z,70.00
2019-02-07T08:19:30.381Z,70.10
2019-02-07T08:21:13.557Z,70.00
2019-02-07T08:22:52.130Z,69.80
2019-02-07T08:24:37.209Z,70.00
2019-02-07T08:26:21.592Z,69.80
2019-02-07T08:28:05.416Z,69.70
2019-02-07T08:29:48.488Z,69.30
2019-02-07T08:31:28.564Z,69.10
2019-02-07T08:33:12.961Z,68.80
2019-02-07T08:34:50.476Z,68.70
2019-02-07T08:36:34.871Z,68.50
2019-02-07T08:38:19.218Z,67.80
2019-02-07T08:39:57.623Z,67.00
2019-02-07T08:41:40.598Z,66.30
2019-02-07T08:43:28.235Z,66.00
2019-02-07T08:45:04.301Z,66.40
2019-02-07T08:46:57.769Z,66.70
2019-02-07T08:48:37.241Z,67.00
2019-02-07T08:50:24.406Z,67.10
2019-02-07T08:52:07.040Z,67.00
2019-02-07T08:53:46.029Z,66.80
2019-02-07T08:55:48.740Z,66.10
2019-02-07T08:57:26.266Z,65.80
2019-02-07T08:59:25.696Z,64.80
2019-02-07T09:01:02.498Z,64.30
2019-02-07T09:02:51.728Z,64.20
2019-02-07T09:04:36.268Z,64.40
2019-02-07T09:06:18.799Z,64.40
2019-02-07T09:08:08.665Z,64.30
2019-02-07T09:09:51.595Z,64.40
2019-02-07T09:11:47.854Z,64.40
2019-02-07T09:13:47.100Z,63.90
2019-02-07T09:15:28.676Z,63.70
2019-02-07T09:17:01.720Z,64.00
2019-02-07T09:18:44.460Z,64.10
2019-02-07T09:20:38.829Z,63.80
2019-02-07T09:22:29.200Z,63.50
2019-02-07T09:24:04.854Z,63.50
2019-02-07T09:25:51.964Z,63.60
2019-02-07T09:27:48.200Z,63.70
2019-02-07T09:29:33.148Z,63.60
2019-02-07T09:31:20.345Z,63.60
2019-02-07T09:33:04.745Z,63.80
2019-02-07T09:34:47.642Z,63.90
2019-02-07T09:36:43.985Z,64.20
2019-02-07T09:38:40.203Z,64.30
2019-02-07T09:40:25.740Z,64.40
2019-02-07T09:42:04.035Z,65.30
2019-02-07T09:43:47.755Z,64.80
2019-02-07T09:45:35.695Z,65.00
2019-02-07T09:47:18.644Z,65.10
2019-02-07T09:49:02.956Z,65.50
2019-02-07T09:50:50.492Z,66.50
2019-02-07T09:52:43.940Z,66.80
2019-02-07T09:54:31.105Z,67.50
2019-02-07T09:56:24.291Z,67.70
2019-02-07T09:58:11.373Z,69.80
2019-02-07T09:59:54.305Z,70.50
2019-02-07T10:01:38.615Z,70.60
2019-02-07T10:03:10.688Z,70.50
2019-02-07T10:04:53.521Z,71.30
2019-02-07T10:06:46.777Z,72.20
2019-02-07T10:08:29.664Z,72.50
2019-02-07T10:10:12.725Z,73.20
2019-02-07T10:12:09.149Z,74.20
2019-02-07T10:14:08.427Z,74.40
2019-02-07T10:15:44.389Z,75.30
2019-02-07T10:17:31.664Z,75.50
2019-02-07T10:19:14.316Z,74.90
2019-02-07T10:21:13.588Z,76.20
2019-02-07T10:23:15.772Z,76.10
2019-02-07T10:24:57.763Z,77.50
2019-02-07T10:26:57.263Z,78.30
2019-02-07T10:28:38.024Z,77.80
2019-02-07T10:30:22.437Z,78.10
2019-02-07T10:32:09.852Z,77.30
2019-02-07T10:34:00.183Z,78.00
2019-02-07T10:35:53.405Z,77.90
2019-02-07T10:37:28.364Z,78.80
2019-02-07T10:39:12.807Z,79.20
2019-02-07T10:40:46.563Z,79.60
2019-02-07T10:42:29.989Z,79.90
2019-02-07T10:44:12.855Z,80.70
2019-02-07T10:45:59.917Z,80.90
2019-02-07T10:47:44.255Z,81.00
2019-02-07T10:49:36.600Z,81.70
2019-02-07T10:51:26.920Z,81.10
2019-02-07T10:53:17.492Z,81.00
2019-02-07T10:55:02.062Z,80.50
2019-02-07T10:56:44.975Z,81.50
2019-02-07T10:58:28.117Z,81.20
2019-02-07T11:00:04.417Z,80.80
2019-02-07T11:02:02.084Z,80.50
2019-02-07T11:03:46.288Z,80.10
2019-02-07T11:05:30.104Z,79.80
2019-02-07T11:07:23.351Z,79.20
2019-02-07T11:09:06.118Z,78.60
2019-02-07T11:10:59.370Z,77.70
2019-02-07T11:13:01.842Z,77.30
2019-02-07T11:14:58.187Z,76.80
2019-02-07T11:16:41.326Z,75.90
2019-02-07T11:18:25.472Z,75.50
2019-02-07T11:20:12.369Z,74.50
2019-02-07T11:22:05.470Z,73.90
2019-02-07T11:23:50.022Z,73.50
2019-02-07T11:25:32.748Z,73.90
2019-02-07T11:27:15.582Z,73.40
2019-02-07T11:28:56.295Z,73.10
2019-02-07T11:30:46.574Z,73.00
2019-02-07T11:32:37.518Z,72.10
2019-02-07T11:34:20.080Z,72.50
2019-02-07T11:36:18.684Z,73.90
2019-02-07T11:38:06.156Z,74.20
2019-02-07T11:40:05.448Z,76.40
2019-02-07T11:41:49.912Z,77.40
2019-02-07T11:43:28.143Z,78.30
2019-02-07T11:45:27.129Z,79.70
2019-02-07T11:47:09.952Z,80.60
2019-02-07T11:49:06.837Z,80.50
2019-02-07T11:50:52.369Z,81.20
2019-02-07T11:52:54.709Z,82.20
2019-02-07T11:54:37.365Z,81.80
2019-02-07T11:56:26.460Z,82.30
2019-02-07T11:58:14.808Z,83.00
2019-02-07T12:00:02.141Z,82.30
2019-02-07T12:01:54.028Z,82.80
2019-02-07T12:03:41.212Z,83.00
2019-02-07T12:05:22.801Z,83.70
2019-02-07T12:07:19.358Z,83.50
2019-02-07T12:09:06.730Z,83.90
2019-02-07T12:10:54.521Z,86.00
2019-02-07T12:12:41.722Z,86.60
2019-02-07T12:14:41.260Z,89.30
2019-02-07T12:16:25.851Z,90.60
2019-02-07T12:18:14.687Z,91.50
2019-02-07T12:19:59.151Z,93.40
2019-02-07T12:21:41.897Z,93.00
2019-02-07T12:23:25.063Z,93.10
2019-02-07T12:25:14.249Z,93.90
2019-02-07T12:27:10.478Z,94.60
2019-02-07T12:29:00.888Z,94.50
2019-02-07T12:30:48.166Z,94.20
2019-02-07T12:32:35.735Z,94.10
2019-02-07T12:34:26.306Z,94.10
2019-02-07T12:36:06.721Z,94.20
2019-02-07T12:37:57.009Z,94.70
2019-02-07T12:39:44.577Z,94.80
2019-02-07T12:41:26.040Z,94.40
2019-02-07T12:43:14.684Z,94.90
2019-02-07T12:45:05.004Z,94.80
2019-02-07T12:46:45.913Z,94.70
2019-02-07T12:48:30.449Z,94.70
2019-02-07T12:50:26.266Z,94.60
2019-02-07T12:52:14.963Z,94.80
2019-02-07T12:54:05.314Z,95.60
2019-02-07T12:56:01.511Z,95.60
2019-02-07T12:57:54.671Z,96.00
2019-02-07T12:59:31.749Z,96.70
2019-02-07T13:01:28.100Z,97.10
2019-02-07T13:03:18.312Z,96.90
2019-02-07T13:05:20.928Z,97.00
2019-02-07T13:07:13.855Z,97.30
2019-02-07T13:08:51.657Z,97.90
2019-02-07T13:10:36.321Z,98.20
2019-02-07T13:12:16.799Z,98.70
2019-02-07T13:14:13.190Z,99.60
2019-02-07T13:15:56.296Z,99.60
2019-02-07T13:17:43.757Z,99.90
2019-02-07T13:19:26.931Z,99.90
2019-02-07T13:21:11.345Z,99.90
2019-02-07T13:22:54.212Z,99.90
2019-02-07T13:24:34.221Z,99.90
2019-02-07T13:26:27.780Z,99.90
2019-02-07T13:28:17.916Z,99.90
2019-02-07T13:30:00.931Z,99.90
2019-02-07T13:31:47.862Z,99.90
2019-02-07T13:33:35.606Z,99.90
2019-02-07T13:35:19.968Z,99.90
2019-02-07T13:37:05.024Z,99.90
2019-02-07T13:38:42.761Z,99.90
2019-02-07T13:40:27.376Z,99.90
2019-02-07T13:42:20.551Z,99.90
2019-02-07T13:44:10.618Z,99.90
2019-02-07T13:46:00.992Z,99.90
2019-02-07T13:47:48.357Z,99.90
2019-02-07T13:49:31.207Z,99.90
2019-02-07T13:51:21.393Z,99.90
2019-02-07T13:52:59.129Z,99.90
2019-02-07T13:54:47.187Z,99.90
2019-02-07T13:56:29.130Z,99.90
2019-02-07T13:58:12.040Z,99.90
2019-02-07T13:59:59.642Z,99.90
2019-02-07T14:01:42.613Z,99.90
2019-02-07T14:03:25.775Z,99.90
2019-02-07T14:05:07.970Z,99.90
2019-02-07T14:06:50.642Z,99.90
2019-02-07T14:08:40.745Z,99.90
2019-02-07T14:10:42.562Z,99.90
2019-02-07T14:12:45.521Z,99.90
2019-02-07T14:14:17.553Z,99.90
2019-02-07T14:16:20.033Z,99.90
2019-02-07T14:18:05.748Z,99.90
2019-02-07T14:19:48.219Z,99.90
2019-02-07T14:21:23.634Z,99.90
2019-02-07T14:23:08.047Z,99.90
2019-02-07T14:24:50.821Z,99.90
2019-02-07T14:26:33.297Z,99.90
2019-02-07T14:28:16.110Z,99.90
2019-02-07T14:29:59.964Z,99.90
2019-02-07T14:31:34.959Z,99.90
2019-02-07T14:33:17.872Z,99.90
2019-02-07T14:35:05.034Z,99.90
2019-02-07T14:36:46.761Z,99.90
2019-02-07T14:38:43.634Z,99.90
2019-02-07T14:40:23.086Z,99.90
2019-02-07T14:42:19.259Z,99.90
2019-02-07T14:43:54.557Z,99.90
2019-02-07T14:45:46.563Z,99.90
2019-02-07T14:47:12.143Z,99.90
2019-02-07T14:48:38.185Z,99.90
2019-02-07T14:50:14.265Z,99.90
2019-02-07T14:51:30.989Z,99.90
2019-02-07T14:52:56.542Z,99.90
2019-02-07T14:54:22.534Z,99.90
2019-02-07T14:55:47.996Z,99.90
2019-02-07T14:57:13.689Z,99.90
2019-02-07T14:58:39.286Z,99.90
2019-02-07T15:00:08.304Z,99.90
2019-02-07T15:01:34.009Z,99.90
2019-02-07T15:02:59.682Z,99.90
2019-02-07T15:04:25.467Z,99.90
2019-02-07T15:05:51.476Z,99.90
2019-02-07T15:07:17.070Z,99.90
2019-02-07T15:08:43.650Z,99.90
2019-02-07T15:10:12.826Z,99.90
2019-02-07T15:11:38.357Z,99.90
2019-02-07T15:13:04.279Z,99.90
2019-02-07T15:14:29.926Z,99.90
2019-02-07T15:15:55.545Z,99.90
2019-02-07T15:17:24.574Z,99.90
2019-02-07T15:18:50.348Z,99.90
2019-02-07T15:20:25.809Z,99.90
2019-02-07T15:21:43.481Z,99.90
2019-02-07T15:23:09.103Z,99.90
2019-02-07T15:24:34.557Z,99.90
2019-02-07T15:26:00.550Z,99.90
2019-02-07T15:27:26.144Z,99.90
2019-02-07T15:28:52.251Z,99.90
2019-02-07T15:30:18.934Z,99.90
2019-02-07T15:31:44.480Z,99.90
2019-02-07T15:33:10.646Z,99.90
2019-02-07T15:34:36.537Z,99.90
2019-02-07T15:36:02.054Z,99.90
2019-02-07T15:37:27.973Z,99.90
2019-02-07T15:38:53.522Z,99.90
2019-02-07T15:40:21.665Z,99.90
2019-02-07T15:41:47.646Z,99.90
2019-02-07T15:43:13.458Z,99.90
2019-02-07T15:44:39.193Z,99.90
2019-02-07T15:46:06.665Z,99.90
2019-02-07T15:47:33.082Z,99.90
2019-02-07T15:48:58.690Z,99.90
2019-02-07T15:50:25.028Z,99.90
2019-02-07T15:51:51.162Z,99.90
2019-02-07T15:53:16.836Z,99.90
2019-02-07T15:54:42.517Z,99.90
2019-02-07T15:56:08.526Z,99.90
2019-02-07T15:57:34.445Z,99.90
2019-02-07T15:59:21.756Z,99.90
2019-02-07T16:01:12.211Z,99.90
2019-02-07T16:02:59.725Z,99.90
2019-02-07T16:04:37.546Z,99.90
2019-02-07T16:06:06.070Z,99.90
2019-02-07T16:07:30.428Z,99.90
2019-02-07T16:08:56.008Z,99.90
2019-02-07T16:10:21.873Z,99.90
2019-02-07T16:11:47.398Z,99.90
2019-02-07T16:13:12.884Z,99.90
2019-02-07T16:14:38.578Z,99.90
2019-02-07T16:16:04.275Z,99.90
2019-02-07T16:17:29.869Z,99.90
2019-02-07T16:18:55.621Z,99.90
2019-02-07T16:20:21.375Z,99.90
2019-02-07T16:21:47.013Z,99.90
2019-02-07T16:23:12.511Z,99.90
2019-02-07T16:24:38.325Z,99.90
2019-02-07T16:26:06.330Z,99.90
2019-02-07T16:27:31.977Z,99.90
2019-02-07T16:28:57.482Z,99.90
2019-02-07T16:30:23.398Z,99.90
2019-02-07T16:31:49.187Z,99.90
2019-02-07T16:33:14.995Z,99.90
2019-02-07T16:34:41.077Z,99.90
2019-02-07T16:36:07.298Z,99.90
2019-02-07T16:37:33.216Z,99.90
2019-02-07T16:38:59.436Z,99.90
2019-02-07T16:40:25.480Z,99.90
2019-02-07T16:41:51.188Z,99.90
2019-02-07T16:43:17.909Z,99.90
2019-02-07T16:44:44.648Z,99.90
2019-02-07T16:46:10.261Z,99.90
2019-02-07T16:47:35.956Z,99.90
2019-02-07T16:49:01.547Z,99.90
2019-02-07T16:50:27.491Z,99.90
2019-02-07T16:51:55.829Z,99.90
2019-02-07T16:53:21.379Z,99.90
2019-02-07T16:54:46.985Z,99.90
2019-02-07T16:56:13.292Z,99.90
2019-02-07T16:57:39.114Z,99.90
2019-02-07T16:59:05.383Z,99.90
2019-02-07T17:00:31.604Z,99.90
2019-02-07T17:01:57.429Z,99.90
2019-02-07T17:03:23.149Z,99.90
2019-02-07T17:04:48.792Z,99.90
2019-02-07T17:06:18.023Z,99.90
2019-02-07T17:07:43.644Z,99.90
2019-02-07T17:09:25.638Z,99.90
2019-02-07T17:10:51.377Z,99.90
2019-02-07T17:12:17.261Z,99.90
2019-02-07T17:13:43.005Z,99.90
2019-02-07T17:15:11.078Z,99.90
2019-02-07T17:16:36.745Z,99.90
2019-02-07T17:18:02.375Z,99.90
2019-02-07T17:19:28.269Z,99.90
2019-02-07T17:20:54.070Z,99.90
2019-02-07T17:22:25.021Z,99.90
2019-02-07T17:23:50.689Z,99.90
2019-02-07T17:25:16.689Z,99.90
2019-02-07T17:26:42.279Z,99.90
2019-02-07T17:28:08.050Z,99.90
2019-02-07T17:29:33.893Z,99.90
2019-02-07T17:30:59.541Z,99.90
2019-02-07T17:32:25.177Z,99.90
2019-02-07T17:33:50.841Z,99.90
2019-02-07T17:35:17.520Z,99.90
2019-02-07T17:36:43.156Z,99.90
2019-02-07T17:38:08.670Z,99.90
2019-02-07T17:39:34.269Z,99.90
2019-02-07T17:41:00.091Z,99.90
2019-02-07T17:42:25.602Z,99.90
2019-02-07T17:43:51.195Z,99.90
2019-02-07T17:45:19.657Z,99.90
2019-02-07T17:46:45.530Z,99.90
2019-02-07T17:48:11.152Z,99.90
2019-02-07T17:49:36.878Z,99.90
2019-02-07T17:51:02.459Z,99.90
2019-02-07T17:52:28.476Z,99.90
2019-02-07T17:53:54.147Z,99.90
2019-02-07T17:55:20.437Z,99.90
2019-02-07T17:56:45.893Z,99.90
2019-02-07T17:58:12.146Z,99.90
2019-02-07T17:59:37.759Z,99.90
2019-02-07T18:01:07.760Z,99.90
2019-02-07T18:02:33.278Z,99.90
2019-02-07T18:03:59.112Z,99.90
2019-02-07T18:05:24.889Z,99.90
2019-02-07T18:06:54.841Z,99.90
2019-02-07T18:08:20.768Z,99.90
2019-02-07T18:09:46.717Z,99.90
2019-02-07T18:11:12.406Z,99.90
2019-02-07T18:12:38.296Z,99.90
2019-02-07T18:14:04.387Z,99.90
2019-02-07T18:15:30.720Z,99.90
2019-02-07T18:16:56.723Z,99.90
2019-02-07T18:18:22.609Z,99.90
2019-02-07T18:19:48.417Z,99.90
2019-02-07T18:21:14.514Z,99.90
2019-02-07T18:22:39.991Z,99.90
2019-02-07T18:24:05.618Z,99.90
2019-02-07T18:25:31.257Z,99.90
2019-02-07T18:26:56.748Z,99.90
2019-02-07T18:28:22.340Z,99.90
2019-02-07T18:29:48.026Z,99.90
2019-02-07T18:31:13.778Z,99.90
2019-02-07T18:32:39.444Z,99.90
2019-02-07T18:34:05.367Z,99.90
2019-02-07T18:35:30.945Z,99.90
2019-02-07T18:36:56.524Z,99.90
2019-02-07T18:38:22.267Z,99.90
2019-02-07T18:39:47.780Z,99.90
2019-02-07T18:41:13.391Z,99.90
2019-02-07T18:42:38.881Z,99.90
2019-02-07T18:44:04.484Z,99.90
2019-02-07T18:45:30.169Z,99.90
2019-02-07T18:46:55.798Z,99.90
2019-02-07T18:48:21.430Z,99.90
2019-02-07T18:49:47.000Z,99.90
2019-02-07T18:51:12.993Z,99.90
2019-02-07T18:52:38.696Z,99.90
2019-02-07T18:54:04.316Z,99.90
2019-02-07T18:55:30.064Z,99.90
2019-02-07T18:56:55.983Z,99.90
2019-02-07T18:58:21.642Z,99.90
2019-02-07T18:59:47.124Z,99.90
2019-02-07T19:01:12.922Z,99.90
2019-02-07T19:02:38.536Z,99.90
2019-02-07T19:04:10.605Z,99.90
2019-02-07T19:05:39.204Z,99.90
2019-02-07T19:07:05.726Z,99.90
2019-02-07T19:08:37.251Z,99.90
2019-02-07T19:10:03.266Z,99.90
2019-02-07T19:11:30.160Z,99.90
2019-02-07T19:13:02.771Z,99.90
2019-02-07T19:14:30.525Z,99.90
2019-02-07T19:15:59.144Z,99.90
2019-02-07T19:17:36.568Z,99.90
2019-02-07T19:19:02.206Z,99.90
2019-02-07T19:20:28.548Z,99.90
2019-02-07T19:21:57.170Z,99.90
2019-02-07T19:23:24.140Z,99.90
2019-02-07T19:24:50.049Z,99.90
2019-02-07T19:26:19.156Z,99.90
2019-02-07T19:27:45.054Z,99.90
2019-02-07T19:29:12.247Z,99.90
2019-02-07T19:30:38.990Z,99.90
2019-02-07T19:32:06.291Z,99.90
2019-02-07T19:33:32.197Z,99.90
2019-02-07T19:35:05.660Z,99.90
2019-02-07T19:36:31.591Z,99.90
2019-02-07T19:37:59.541Z,99.90
2019-02-07T19:39:25.009Z,99.90
2019-02-07T19:40:51.897Z,99.90
2019-02-07T19:42:17.764Z,99.90
2019-02-07T19:43:45.584Z,99.90
2019-02-07T19:45:12.024Z,99.90
2019-02-07T19:46:37.768Z,99.90
2019-02-07T19:48:05.997Z,99.90
2019-02-07T19:49:31.478Z,99.90
2019-02-07T19:50:57.182Z,99.90
2019-02-07T19:52:22.900Z,99.90
2019-02-07T19:53:49.490Z,99.90
2019-02-07T19:55:17.466Z,99.90
2019-02-07T19:56:43.050Z,99.90
2019-02-07T19:58:08.861Z,99.90
2019-02-07T19:59:34.879Z,99.90
2019-02-07T20:01:00.553Z,99.90
2019-02-07T20:02:26.094Z,99.90
2019-02-07T20:03:51.741Z,99.90
2019-02-07T20:05:18.382Z,99.90
2019-02-07T20:06:44.179Z,99.90
2019-02-07T20:08:09.966Z,99.90
2019-02-07T20:09:35.733Z,99.90
2019-02-07T20:11:01.482Z,99.90
2019-02-07T20:12:27.085Z,99.90
2019-02-07T20:13:52.737Z,99.90
2019-02-07T20:15:26.611Z,99.90
2019-02-07T20:16:52.341Z,99.90
2019-02-07T20:18:17.884Z,99.90
2019-02-07T20:19:43.591Z,99.90
2019-02-07T20:21:09.306Z,99.90
2019-02-07T20:22:34.967Z,99.90
2019-02-07T20:24:03.099Z,99.90
2019-02-07T20:25:29.155Z,99.90
2019-02-07T20:26:54.977Z,99.90
2019-02-07T20:28:20.561Z,99.90
2019-02-07T20:29:46.166Z,99.90
2019-02-07T20:31:12.205Z,99.90
2019-02-07T20:32:38.160Z,99.90
2019-02-07T20:34:03.929Z,99.90
2019-02-07T20:35:29.668Z,99.90
2019-02-07T20:36:55.184Z,99.90
2019-02-07T20:38:21.011Z,99.90
2019-02-07T20:39:46.525Z,99.90
2019-02-07T20:41:12.190Z,99.90
2019-02-07T20:42:37.801Z,99.90
2019-02-07T20:44:03.473Z,99.90
2019-02-07T20:45:29.304Z,99.90
2019-02-07T20:46:54.803Z,99.90